sensor_id;sensor_type;location;lat;lon;timestamp;temperature;humidity
56103;DHT22;41970;48.774;9.280;2022-09-19T00:03:32;11.80;99.90
56103;DHT22;41970;48.774;9.280;2022-09-19T00:05:58;11.70;99.90
56103;DHT22;41970;48.774;9.280;2022-09-19T00:08:24;11.70;99.90
56103;DHT22;41970;48.774;9.280;2022-09-19T00:10:50;11.60;99.90
56103;DHT22;41970;48.774;9.280;2022-09-19T00:13:17;11.60;99.90
56103;DHT22;41970;48.774;9.280;2022-09-19T00:15:48;11.70;99.90
56103;DHT22;41970;48.774;9.280;2022-09-19T00:18:15;11.70;99.90
56103;DHT22;41970;48.774;9.280;2022-09-19T00:20:43;11.80;99.90
56103;DHT22;41970;48.774;9.280;2022-09-19T00:23:16;11.90;99.90
56103;DHT22;41970;48.774;9.280;2022-09-19T00:26:04;11.90;99.90
56103;DHT22;41970;48.774;9.280;2022-09-19T00:28:30;11.80;99.90
56103;DHT22;41970;48.774;9.280;2022-09-19T00:30:57;11.80;99.90
56103;DHT22;41970;48.774;9.280;2022-09-19T00:33:26;11.80;99.90
56103;DHT22;41970;48.774;9.280;2022-09-19T00:35:56;11.70;99.90
56103;DHT22;41970;48.774;9.280;2022-09-19T00:38:26;11.70;99.90
56103;DHT22;41970;48.774;9.280;2022-09-19T00:40:52;11.80;99.90
56103;DHT22;41970;48.774;9.280;2022-09-19T00:43:20;11.80;99.90
56103;DHT22;41970;48.774;9.280;2022-09-19T00:45:46;11.70;99.90
56103;DHT22;41970;48.774;9.280;2022-09-19T00:48:14;11.70;99.90
56103;DHT22;41970;48.774;9.280;2022-09-19T00:50:43;11.60;99.90
56103;DHT22;41970;48.774;9.280;2022-09-19T00:53:13;11.50;99.90
56103;DHT22;41970;48.774;9.280;2022-09-19T00:55:41;11.60;99.90
56103;DHT22;41970;48.774;9.280;2022-09-19T00:58:14;11.60;99.90
56103;DHT22;41970;48.774;9.280;2022-09-19T01:00:41;11.70;99.90
56103;DHT22;41970;48.774;9.280;2022-09-19T01:03:08;11.80;99.90
56103;DHT22;41970;48.774;9.280;2022-09-19T01:08:29;11.90;99.90
56103;DHT22;41970;48.774;9.280;2022-09-19T01:11:15;11.80;99.90
56103;DHT22;41970;48.774;9.280;2022-09-19T01:13:54;11.80;99.90
56103;DHT22;41970;48.774;9.280;2022-09-19T01:16:41;11.80;99.90
56103;DHT22;41970;48.774;9.280;2022-09-19T01:22:31;11.70;99.90
56103;DHT22;41970;48.774;9.280;2022-09-19T01:28:07;11.70;99.90
56103;DHT22;41970;48.774;9.280;2022-09-19T01:30:39;11.70;99.90
56103;DHT22;41970;48.774;9.280;2022-09-19T01:33:10;11.70;99.90
56103;DHT22;41970;48.774;9.280;2022-09-19T01:35:39;11.50;99.90
56103;DHT22;41970;48.774;9.280;2022-09-19T01:38:16;11.40;99.90
56103;DHT22;41970;48.774;9.280;2022-09-19T01:40:48;11.20;99.90
56103;DHT22;41970;48.774;9.280;2022-09-19T01:43:16;10.60;99.90
56103;DHT22;41970;48.774;9.280;2022-09-19T01:45:44;10.40;99.90
56103;DHT22;41970;48.774;9.280;2022-09-19T01:51:44;10.40;99.90
56103;DHT22;41970;48.774;9.280;2022-09-19T01:54:40;10.20;99.90
56103;DHT22;41970;48.774;9.280;2022-09-19T02:00:12;9.60;99.90
56103;DHT22;41970;48.774;9.280;2022-09-19T02:08:07;9.70;99.90
56103;DHT22;41970;48.774;9.280;2022-09-19T02:10:46;9.80;99.90
56103;DHT22;41970;48.774;9.280;2022-09-19T02:13:13;10.00;99.90
56103;DHT22;41970;48.774;9.280;2022-09-19T02:15:45;10.10;99.90
56103;DHT22;41970;48.774;9.280;2022-09-19T02:18:22;10.10;99.90
56103;DHT22;41970;48.774;9.280;2022-09-19T02:20:55;10.10;99.90
56103;DHT22;41970;48.774;9.280;2022-09-19T02:23:27;10.10;99.90
56103;DHT22;41970;48.774;9.280;2022-09-19T02:25:55;10.10;99.90
56103;DHT22;41970;48.774;9.280;2022-09-19T02:28:29;10.20;99.90
56103;DHT22;41970;48.774;9.280;2022-09-19T02:30:57;10.30;99.90
56103;DHT22;41970;48.774;9.280;2022-09-19T02:33:24;10.40;99.90
56103;DHT22;41970;48.774;9.280;2022-09-19T02:36:08;10.30;99.90
56103;DHT22;41970;48.774;9.280;2022-09-19T02:41:41;10.30;99.90
56103;DHT22;41970;48.774;9.280;2022-09-19T02:49:30;9.90;99.90
56103;DHT22;41970;48.774;9.280;2022-09-19T02:52:06;9.70;99.90
56103;DHT22;41970;48.774;9.280;2022-09-19T02:54:37;9.50;99.90
56103;DHT22;41970;48.774;9.280;2022-09-19T02:57:08;9.40;99.90
56103;DHT22;41970;48.774;9.280;2022-09-19T02:59:37;9.40;99.90
56103;DHT22;41970;48.774;9.280;2022-09-19T03:02:17;9.50;99.90
56103;DHT22;41970;48.774;9.280;2022-09-19T03:04:48;9.50;99.90
56103;DHT22;41970;48.774;9.280;2022-09-19T03:07:32;9.70;99.90
56103;DHT22;41970;48.774;9.280;2022-09-19T03:10:06;9.70;99.90
56103;DHT22;41970;48.774;9.280;2022-09-19T03:12:40;9.90;99.90
56103;DHT22;41970;48.774;9.280;2022-09-19T03:15:22;10.00;99.90
56103;DHT22;41970;48.774;9.280;2022-09-19T03:17:52;10.10;99.90
56103;DHT22;41970;48.774;9.280;2022-09-19T03:20:20;10.20;99.90
56103;DHT22;41970;48.774;9.280;2022-09-19T03:22:49;10.20;99.90
56103;DHT22;41970;48.774;9.280;2022-09-19T03:25:16;10.20;99.90
56103;DHT22;41970;48.774;9.280;2022-09-19T03:27:42;10.30;99.90
56103;DHT22;41970;48.774;9.280;2022-09-19T03:30:11;10.40;99.90
56103;DHT22;41970;48.774;9.280;2022-09-19T03:32:38;10.50;99.90
56103;DHT22;41970;48.774;9.280;2022-09-19T03:35:06;10.60;99.90
56103;DHT22;41970;48.774;9.280;2022-09-19T03:37:32;10.60;99.90
56103;DHT22;41970;48.774;9.280;2022-09-19T03:40:00;10.60;99.90
56103;DHT22;41970;48.774;9.280;2022-09-19T03:42:26;10.70;99.90
56103;DHT22;41970;48.774;9.280;2022-09-19T03:44:53;10.70;99.90
56103;DHT22;41970;48.774;9.280;2022-09-19T03:47:19;10.70;99.90
56103;DHT22;41970;48.774;9.280;2022-09-19T03:49:50;10.80;99.90
56103;DHT22;41970;48.774;9.280;2022-09-19T03:52:19;10.80;99.90
56103;DHT22;41970;48.774;9.280;2022-09-19T03:54:46;10.80;99.90
56103;DHT22;41970;48.774;9.280;2022-09-19T03:57:13;10.80;99.90
56103;DHT22;41970;48.774;9.280;2022-09-19T03:59:40;10.80;99.90
56103;DHT22;41970;48.774;9.280;2022-09-19T04:02:08;10.90;99.90
56103;DHT22;41970;48.774;9.280;2022-09-19T04:04:34;10.90;99.90
56103;DHT22;41970;48.774;9.280;2022-09-19T04:07:01;11.00;99.90
56103;DHT22;41970;48.774;9.280;2022-09-19T04:09:28;11.10;99.90
56103;DHT22;41970;48.774;9.280;2022-09-19T04:11:54;11.20;99.90
56103;DHT22;41970;48.774;9.280;2022-09-19T04:14:21;11.20;99.90
56103;DHT22;41970;48.774;9.280;2022-09-19T04:16:47;11.20;99.90
56103;DHT22;41970;48.774;9.280;2022-09-19T04:19:13;11.20;99.90
56103;DHT22;41970;48.774;9.280;2022-09-19T04:21:39;11.20;99.90
56103;DHT22;41970;48.774;9.280;2022-09-19T04:24:09;11.20;99.90
56103;DHT22;41970;48.774;9.280;2022-09-19T04:26:35;11.30;99.90
56103;DHT22;41970;48.774;9.280;2022-09-19T04:29:02;11.30;99.90
56103;DHT22;41970;48.774;9.280;2022-09-19T04:31:33;11.30;99.90
56103;DHT22;41970;48.774;9.280;2022-09-19T04:34:06;11.30;99.90
56103;DHT22;41970;48.774;9.280;2022-09-19T04:36:33;11.30;99.90
56103;DHT22;41970;48.774;9.280;2022-09-19T04:39:00;11.40;99.90
56103;DHT22;41970;48.774;9.280;2022-09-19T04:41:30;11.40;99.90
56103;DHT22;41970;48.774;9.280;2022-09-19T04:43:57;11.40;99.90
56103;DHT22;41970;48.774;9.280;2022-09-19T04:46:23;11.40;99.90
56103;DHT22;41970;48.774;9.280;2022-09-19T04:48:49;11.40;99.90
56103;DHT22;41970;48.774;9.280;2022-09-19T04:51:18;11.40;99.90
56103;DHT22;41970;48.774;9.280;2022-09-19T04:53:44;11.40;99.90
56103;DHT22;41970;48.774;9.280;2022-09-19T04:56:10;11.50;99.90
56103;DHT22;41970;48.774;9.280;2022-09-19T04:58:37;11.50;99.90
56103;DHT22;41970;48.774;9.280;2022-09-19T05:01:07;11.70;99.90
56103;DHT22;41970;48.774;9.280;2022-09-19T05:03:33;11.70;99.90
56103;DHT22;41970;48.774;9.280;2022-09-19T05:06:00;11.70;99.90
56103;DHT22;41970;48.774;9.280;2022-09-19T05:08:29;11.70;99.90
56103;DHT22;41970;48.774;9.280;2022-09-19T05:10:58;11.60;99.90
56103;DHT22;41970;48.774;9.280;2022-09-19T05:13:27;11.70;99.90
56103;DHT22;41970;48.774;9.280;2022-09-19T05:15:57;11.70;99.90
56103;DHT22;41970;48.774;9.280;2022-09-19T05:18:23;11.70;99.90
56103;DHT22;41970;48.774;9.280;2022-09-19T05:20:51;11.70;99.90
56103;DHT22;41970;48.774;9.280;2022-09-19T05:23:22;11.80;99.90
56103;DHT22;41970;48.774;9.280;2022-09-19T05:25:49;11.80;99.90
56103;DHT22;41970;48.774;9.280;2022-09-19T05:28:20;11.80;99.90
56103;DHT22;41970;48.774;9.280;2022-09-19T05:30:47;11.90;99.90
56103;DHT22;41970;48.774;9.280;2022-09-19T05:33:18;11.90;99.90
56103;DHT22;41970;48.774;9.280;2022-09-19T05:35:50;12.00;99.90
56103;DHT22;41970;48.774;9.280;2022-09-19T05:38:16;12.00;99.90
56103;DHT22;41970;48.774;9.280;2022-09-19T05:40:42;12.00;99.90
56103;DHT22;41970;48.774;9.280;2022-09-19T05:43:09;12.00;99.90
56103;DHT22;41970;48.774;9.280;2022-09-19T05:45:34;12.00;99.90
56103;DHT22;41970;48.774;9.280;2022-09-19T05:48:02;12.00;99.90
56103;DHT22;41970;48.774;9.280;2022-09-19T05:50:30;12.00;99.90
56103;DHT22;41970;48.774;9.280;2022-09-19T05:52:56;12.00;99.90
56103;DHT22;41970;48.774;9.280;2022-09-19T05:55:41;12.10;99.90
56103;DHT22;41970;48.774;9.280;2022-09-19T05:58:07;12.10;99.90
56103;DHT22;41970;48.774;9.280;2022-09-19T06:00:35;12.10;99.90
56103;DHT22;41970;48.774;9.280;2022-09-19T06:03:03;12.00;99.90
56103;DHT22;41970;48.774;9.280;2022-09-19T06:05:31;12.00;99.90
56103;DHT22;41970;48.774;9.280;2022-09-19T06:08:02;12.00;99.90
56103;DHT22;41970;48.774;9.280;2022-09-19T06:10:33;12.10;99.90
56103;DHT22;41970;48.774;9.280;2022-09-19T06:13:00;12.20;99.90
56103;DHT22;41970;48.774;9.280;2022-09-19T06:15:26;12.20;99.90
56103;DHT22;41970;48.774;9.280;2022-09-19T06:17:58;12.30;99.90
56103;DHT22;41970;48.774;9.280;2022-09-19T06:20:25;12.30;99.90
56103;DHT22;41970;48.774;9.280;2022-09-19T06:22:59;12.30;99.90
56103;DHT22;41970;48.774;9.280;2022-09-19T06:25:29;12.40;99.90
56103;DHT22;41970;48.774;9.280;2022-09-19T06:27:56;12.40;99.90
56103;DHT22;41970;48.774;9.280;2022-09-19T06:30:23;12.40;99.90
56103;DHT22;41970;48.774;9.280;2022-09-19T06:32:49;12.40;99.90
56103;DHT22;41970;48.774;9.280;2022-09-19T06:35:20;12.30;99.90
56103;DHT22;41970;48.774;9.280;2022-09-19T06:37:46;12.30;99.90
56103;DHT22;41970;48.774;9.280;2022-09-19T06:40:13;12.10;99.90
56103;DHT22;41970;48.774;9.280;2022-09-19T06:42:40;12.00;99.90
56103;DHT22;41970;48.774;9.280;2022-09-19T06:45:07;12.00;99.90
56103;DHT22;41970;48.774;9.280;2022-09-19T06:47:33;12.10;99.90
56103;DHT22;41970;48.774;9.280;2022-09-19T06:50:01;12.20;99.90
56103;DHT22;41970;48.774;9.280;2022-09-19T06:52:28;12.30;99.90
56103;DHT22;41970;48.774;9.280;2022-09-19T06:54:54;12.30;99.90
56103;DHT22;41970;48.774;9.280;2022-09-19T06:57:20;12.40;99.90
56103;DHT22;41970;48.774;9.280;2022-09-19T06:59:46;12.50;99.90
56103;DHT22;41970;48.774;9.280;2022-09-19T07:02:12;12.50;99.90
56103;DHT22;41970;48.774;9.280;2022-09-19T07:04:39;12.40;99.90
56103;DHT22;41970;48.774;9.280;2022-09-19T07:07:05;12.40;99.90
56103;DHT22;41970;48.774;9.280;2022-09-19T07:09:31;12.40;99.90
56103;DHT22;41970;48.774;9.280;2022-09-19T07:11:57;12.30;99.90
56103;DHT22;41970;48.774;9.280;2022-09-19T07:14:26;12.40;99.90
56103;DHT22;41970;48.774;9.280;2022-09-19T07:16:53;12.40;99.90
56103;DHT22;41970;48.774;9.280;2022-09-19T07:19:19;12.40;99.90
56103;DHT22;41970;48.774;9.280;2022-09-19T07:21:45;12.30;99.90
56103;DHT22;41970;48.774;9.280;2022-09-19T07:24:10;12.30;99.90
56103;DHT22;41970;48.774;9.280;2022-09-19T07:26:36;12.20;99.90
56103;DHT22;41970;48.774;9.280;2022-09-19T07:29:02;12.20;99.90
56103;DHT22;41970;48.774;9.280;2022-09-19T07:31:28;12.20;99.90
56103;DHT22;41970;48.774;9.280;2022-09-19T07:33:54;12.30;99.90
56103;DHT22;41970;48.774;9.280;2022-09-19T07:36:21;12.30;99.90
56103;DHT22;41970;48.774;9.280;2022-09-19T07:38:49;12.30;99.90
56103;DHT22;41970;48.774;9.280;2022-09-19T07:41:17;12.40;99.90
56103;DHT22;41970;48.774;9.280;2022-09-19T07:43:44;12.40;99.90
56103;DHT22;41970;48.774;9.280;2022-09-19T07:46:10;12.30;99.90
56103;DHT22;41970;48.774;9.280;2022-09-19T07:48:41;12.20;99.90
56103;DHT22;41970;48.774;9.280;2022-09-19T07:51:08;12.00;99.90
56103;DHT22;41970;48.774;9.280;2022-09-19T07:53:34;12.00;99.90
56103;DHT22;41970;48.774;9.280;2022-09-19T07:56:00;12.10;99.90
56103;DHT22;41970;48.774;9.280;2022-09-19T07:58:27;12.00;99.90
56103;DHT22;41970;48.774;9.280;2022-09-19T08:00:54;12.10;99.90
56103;DHT22;41970;48.774;9.280;2022-09-19T08:03:20;12.10;99.90
56103;DHT22;41970;48.774;9.280;2022-09-19T08:05:48;12.30;99.90
56103;DHT22;41970;48.774;9.280;2022-09-19T08:08:16;12.40;99.90
56103;DHT22;41970;48.774;9.280;2022-09-19T08:10:43;12.50;99.90
56103;DHT22;41970;48.774;9.280;2022-09-19T08:13:11;12.40;99.90
56103;DHT22;41970;48.774;9.280;2022-09-19T08:15:37;12.60;99.90
56103;DHT22;41970;48.774;9.280;2022-09-19T08:18:12;12.70;99.90
56103;DHT22;41970;48.774;9.280;2022-09-19T08:20:39;12.70;99.90
56103;DHT22;41970;48.774;9.280;2022-09-19T08:23:09;12.60;99.90
56103;DHT22;41970;48.774;9.280;2022-09-19T08:25:36;12.80;99.90
56103;DHT22;41970;48.774;9.280;2022-09-19T08:28:09;12.80;99.90
56103;DHT22;41970;48.774;9.280;2022-09-19T08:30:35;12.80;99.90
56103;DHT22;41970;48.774;9.280;2022-09-19T08:33:02;12.80;99.90
56103;DHT22;41970;48.774;9.280;2022-09-19T08:35:29;12.90;99.90
56103;DHT22;41970;48.774;9.280;2022-09-19T08:37:58;12.90;99.90
56103;DHT22;41970;48.774;9.280;2022-09-19T08:40:28;12.80;99.90
56103;DHT22;41970;48.774;9.280;2022-09-19T08:48:28;12.80;99.80
56103;DHT22;41970;48.774;9.280;2022-09-19T08:51:01;12.80;99.90
56103;DHT22;41970;48.774;9.280;2022-09-19T08:53:34;12.80;99.90
56103;DHT22;41970;48.774;9.280;2022-09-19T08:56:00;12.80;99.90
56103;DHT22;41970;48.774;9.280;2022-09-19T08:58:29;12.80;99.90
56103;DHT22;41970;48.774;9.280;2022-09-19T09:00:56;12.70;99.90
56103;DHT22;41970;48.774;9.280;2022-09-19T09:03:33;12.70;99.90
56103;DHT22;41970;48.774;9.280;2022-09-19T09:06:25;12.80;99.90
56103;DHT22;41970;48.774;9.280;2022-09-19T09:09:06;12.90;99.90
56103;DHT22;41970;48.774;9.280;2022-09-19T09:11:36;12.80;99.90
56103;DHT22;41970;48.774;9.280;2022-09-19T09:17:02;12.80;99.90
56103;DHT22;41970;48.774;9.280;2022-09-19T09:22:36;13.00;99.90
56103;DHT22;41970;48.774;9.280;2022-09-19T09:25:18;13.10;99.90
56103;DHT22;41970;48.774;9.280;2022-09-19T09:30:34;13.00;99.90
56103;DHT22;41970;48.774;9.280;2022-09-19T09:33:13;12.90;99.90
56103;DHT22;41970;48.774;9.280;2022-09-19T09:35:48;12.90;99.90
56103;DHT22;41970;48.774;9.280;2022-09-19T09:41:00;12.80;99.90
56103;DHT22;41970;48.774;9.280;2022-09-19T09:44:00;12.90;99.90
56103;DHT22;41970;48.774;9.280;2022-09-19T09:47:00;12.90;99.90
56103;DHT22;41970;48.774;9.280;2022-09-19T09:49:29;12.90;99.90
56103;DHT22;41970;48.774;9.280;2022-09-19T10:00:20;12.90;99.70
56103;DHT22;41970;48.774;9.280;2022-09-19T10:03:22;12.80;99.80
56103;DHT22;41970;48.774;9.280;2022-09-19T10:06:12;12.90;99.80
56103;DHT22;41970;48.774;9.280;2022-09-19T10:08:43;13.00;99.40
56103;DHT22;41970;48.774;9.280;2022-09-19T10:11:16;13.10;99.70
56103;DHT22;41970;48.774;9.280;2022-09-19T10:13:53;13.20;99.30
56103;DHT22;41970;48.774;9.280;2022-09-19T10:16:31;13.30;99.00
56103;DHT22;41970;48.774;9.280;2022-09-19T10:21:42;13.30;99.20
56103;DHT22;41970;48.774;9.280;2022-09-19T10:27:20;13.60;98.90
56103;DHT22;41970;48.774;9.280;2022-09-19T10:32:29;13.80;97.90
56103;DHT22;41970;48.774;9.280;2022-09-19T10:35:00;13.90;98.00
56103;DHT22;41970;48.774;9.280;2022-09-19T10:37:33;14.00;97.40
56103;DHT22;41970;48.774;9.280;2022-09-19T10:40:00;14.10;97.40
56103;DHT22;41970;48.774;9.280;2022-09-19T10:42:38;14.10;97.30
56103;DHT22;41970;48.774;9.280;2022-09-19T10:47:56;14.30;97.70
56103;DHT22;41970;48.774;9.280;2022-09-19T10:50:25;14.40;97.60
56103;DHT22;41970;48.774;9.280;2022-09-19T10:53:00;14.20;97.50
56103;DHT22;41970;48.774;9.280;2022-09-19T10:55:27;14.30;98.10
56103;DHT22;41970;48.774;9.280;2022-09-19T10:57:56;14.30;97.80
56103;DHT22;41970;48.774;9.280;2022-09-19T11:00:30;14.40;97.90
56103;DHT22;41970;48.774;9.280;2022-09-19T11:03:01;14.50;97.60
56103;DHT22;41970;48.774;9.280;2022-09-19T11:05:31;14.60;97.10
56103;DHT22;41970;48.774;9.280;2022-09-19T11:07:57;14.60;97.10
56103;DHT22;41970;48.774;9.280;2022-09-19T11:10:39;14.60;97.10
56103;DHT22;41970;48.774;9.280;2022-09-19T11:13:21;14.50;97.40
56103;DHT22;41970;48.774;9.280;2022-09-19T11:24:27;14.60;97.20
56103;DHT22;41970;48.774;9.280;2022-09-19T11:27:24;14.70;97.00
56103;DHT22;41970;48.774;9.280;2022-09-19T11:35:54;14.60;97.70
56103;DHT22;41970;48.774;9.280;2022-09-19T11:38:33;14.50;97.80
56103;DHT22;41970;48.774;9.280;2022-09-19T11:42:05;14.40;97.60
56103;DHT22;41970;48.774;9.280;2022-09-19T11:49:47;14.50;98.10
56103;DHT22;41970;48.774;9.280;2022-09-19T11:57:48;14.90;97.30
56103;DHT22;41970;48.774;9.280;2022-09-19T12:00:21;14.90;96.90
56103;DHT22;41970;48.774;9.280;2022-09-19T12:06:06;15.00;96.60
56103;DHT22;41970;48.774;9.280;2022-09-19T12:08:59;15.10;96.70
56103;DHT22;41970;48.774;9.280;2022-09-19T12:14:34;15.00;96.60
56103;DHT22;41970;48.774;9.280;2022-09-19T12:17:33;15.10;97.00
56103;DHT22;41970;48.774;9.280;2022-09-19T12:22:30;15.30;96.80
56103;DHT22;41970;48.774;9.280;2022-09-19T12:25:29;15.20;97.10
56103;DHT22;41970;48.774;9.280;2022-09-19T12:28:07;15.30;97.50
56103;DHT22;41970;48.774;9.280;2022-09-19T12:30:39;15.30;96.30
56103;DHT22;41970;48.774;9.280;2022-09-19T12:36:02;15.50;97.00
56103;DHT22;41970;48.774;9.280;2022-09-19T12:41:15;15.30;97.30
56103;DHT22;41970;48.774;9.280;2022-09-19T12:46:41;15.30;96.70
56103;DHT22;41970;48.774;9.280;2022-09-19T12:51:50;15.40;96.50
56103;DHT22;41970;48.774;9.280;2022-09-19T12:55:00;15.40;97.00
56103;DHT22;41970;48.774;9.280;2022-09-19T12:57:44;15.50;97.30
56103;DHT22;41970;48.774;9.280;2022-09-19T13:00:12;15.70;96.60
56103;DHT22;41970;48.774;9.280;2022-09-19T13:02:44;15.80;95.90
56103;DHT22;41970;48.774;9.280;2022-09-19T13:05:27;15.90;95.30
56103;DHT22;41970;48.774;9.280;2022-09-19T13:08:04;15.90;95.40
56103;DHT22;41970;48.774;9.280;2022-09-19T13:10:48;15.80;95.00
56103;DHT22;41970;48.774;9.280;2022-09-19T13:13:30;15.80;95.30
56103;DHT22;41970;48.774;9.280;2022-09-19T13:16:10;15.80;95.70
56103;DHT22;41970;48.774;9.280;2022-09-19T13:18:51;15.90;95.10
56103;DHT22;41970;48.774;9.280;2022-09-19T13:21:39;15.80;95.60
56103;DHT22;41970;48.774;9.280;2022-09-19T13:27:09;15.90;95.10
56103;DHT22;41970;48.774;9.280;2022-09-19T13:35:50;15.80;94.90
56103;DHT22;41970;48.774;9.280;2022-09-19T13:38:45;15.90;94.90
56103;DHT22;41970;48.774;9.280;2022-09-19T13:44:45;16.00;94.60
56103;DHT22;41970;48.774;9.280;2022-09-19T13:47:41;16.30;93.50
56103;DHT22;41970;48.774;9.280;2022-09-19T13:50:24;16.20;93.90
56103;DHT22;41970;48.774;9.280;2022-09-19T13:52:57;16.10;94.60
56103;DHT22;41970;48.774;9.280;2022-09-19T13:55:37;16.30;94.90
56103;DHT22;41970;48.774;9.280;2022-09-19T14:03:51;16.80;93.30
56103;DHT22;41970;48.774;9.280;2022-09-19T14:06:24;16.90;93.40
56103;DHT22;41970;48.774;9.280;2022-09-19T14:09:28;17.00;93.50
56103;DHT22;41970;48.774;9.280;2022-09-19T14:12:00;17.10;93.10
56103;DHT22;41970;48.774;9.280;2022-09-19T14:19:51;17.30;92.20
56103;DHT22;41970;48.774;9.280;2022-09-19T14:33:49;16.90;95.30
56103;DHT22;41970;48.774;9.280;2022-09-19T14:36:41;16.50;94.80
56103;DHT22;41970;48.774;9.280;2022-09-19T14:44:41;15.40;96.80
56103;DHT22;41970;48.774;9.280;2022-09-19T14:47:20;15.30;95.50
56103;DHT22;41970;48.774;9.280;2022-09-19T14:49:56;15.30;96.90
56103;DHT22;41970;48.774;9.280;2022-09-19T14:52:26;15.20;97.90
56103;DHT22;41970;48.774;9.280;2022-09-19T14:55:02;15.20;98.00
56103;DHT22;41970;48.774;9.280;2022-09-19T14:57:30;15.30;97.70
56103;DHT22;41970;48.774;9.280;2022-09-19T15:00:18;15.30;98.40
56103;DHT22;41970;48.774;9.280;2022-09-19T15:02:45;15.20;98.10
56103;DHT22;41970;48.774;9.280;2022-09-19T15:05:18;15.00;99.10
56103;DHT22;41970;48.774;9.280;2022-09-19T15:07:44;14.90;99.20
56103;DHT22;41970;48.774;9.280;2022-09-19T15:10:27;14.90;99.90
56103;DHT22;41970;48.774;9.280;2022-09-19T15:15:54;15.00;99.90
56103;DHT22;41970;48.774;9.280;2022-09-19T15:18:29;15.10;99.80
56103;DHT22;41970;48.774;9.280;2022-09-19T15:20:58;14.80;99.90
56103;DHT22;41970;48.774;9.280;2022-09-19T15:23:27;14.60;99.90
56103;DHT22;41970;48.774;9.280;2022-09-19T15:25:57;14.60;99.90
56103;DHT22;41970;48.774;9.280;2022-09-19T15:28:32;14.70;99.90
56103;DHT22;41970;48.774;9.280;2022-09-19T15:31:22;14.80;99.90
56103;DHT22;41970;48.774;9.280;2022-09-19T15:34:06;15.00;99.90
56103;DHT22;41970;48.774;9.280;2022-09-19T15:36:36;15.10;99.90
56103;DHT22;41970;48.774;9.280;2022-09-19T15:39:04;15.20;99.90
56103;DHT22;41970;48.774;9.280;2022-09-19T15:41:31;15.20;99.90
56103;DHT22;41970;48.774;9.280;2022-09-19T15:43:59;15.20;99.90
56103;DHT22;41970;48.774;9.280;2022-09-19T15:49:03;15.30;99.90
56103;DHT22;41970;48.774;9.280;2022-09-19T15:51:37;15.40;99.90
56103;DHT22;41970;48.774;9.280;2022-09-19T15:54:15;15.30;99.90
56103;DHT22;41970;48.774;9.280;2022-09-19T15:56:45;15.30;99.90
56103;DHT22;41970;48.774;9.280;2022-09-19T15:59:20;15.40;99.90
56103;DHT22;41970;48.774;9.280;2022-09-19T16:01:56;15.40;99.90
56103;DHT22;41970;48.774;9.280;2022-09-19T16:04:34;15.40;99.90
56103;DHT22;41970;48.774;9.280;2022-09-19T16:07:00;15.40;99.90
56103;DHT22;41970;48.774;9.280;2022-09-19T16:09:46;15.50;99.90
56103;DHT22;41970;48.774;9.280;2022-09-19T16:12:30;15.50;99.90
56103;DHT22;41970;48.774;9.280;2022-09-19T16:23:12;15.70;99.90
56103;DHT22;41970;48.774;9.280;2022-09-19T16:26:00;15.80;99.90
56103;DHT22;41970;48.774;9.280;2022-09-19T16:33:53;15.50;99.90
56103;DHT22;41970;48.774;9.280;2022-09-19T16:36:21;15.50;99.90
56103;DHT22;41970;48.774;9.280;2022-09-19T16:41:26;15.50;99.90
56103;DHT22;41970;48.774;9.280;2022-09-19T16:44:31;15.40;99.90
56103;DHT22;41970;48.774;9.280;2022-09-19T16:47:21;15.00;99.90
56103;DHT22;41970;48.774;9.280;2022-09-19T16:49:47;15.00;99.90
56103;DHT22;41970;48.774;9.280;2022-09-19T16:52:27;15.00;99.90
56103;DHT22;41970;48.774;9.280;2022-09-19T16:54:57;15.00;99.90
56103;DHT22;41970;48.774;9.280;2022-09-19T16:57:25;15.10;99.90
56103;DHT22;41970;48.774;9.280;2022-09-19T16:59:52;15.00;99.90
56103;DHT22;41970;48.774;9.280;2022-09-19T17:02:24;15.00;99.90
56103;DHT22;41970;48.774;9.280;2022-09-19T17:04:51;15.10;99.90
56103;DHT22;41970;48.774;9.280;2022-09-19T17:07:18;15.10;99.90
56103;DHT22;41970;48.774;9.280;2022-09-19T17:09:50;15.10;99.90
56103;DHT22;41970;48.774;9.280;2022-09-19T17:12:18;15.10;99.90
56103;DHT22;41970;48.774;9.280;2022-09-19T17:14:45;15.00;99.90
56103;DHT22;41970;48.774;9.280;2022-09-19T17:17:12;15.00;99.90
56103;DHT22;41970;48.774;9.280;2022-09-19T17:19:47;15.00;99.90
56103;DHT22;41970;48.774;9.280;2022-09-19T17:22:15;15.00;99.90
56103;DHT22;41970;48.774;9.280;2022-09-19T17:24:41;15.00;99.90
56103;DHT22;41970;48.774;9.280;2022-09-19T17:27:08;15.00;99.90
56103;DHT22;41970;48.774;9.280;2022-09-19T17:29:35;15.00;99.90
56103;DHT22;41970;48.774;9.280;2022-09-19T17:32:02;14.90;99.90
56103;DHT22;41970;48.774;9.280;2022-09-19T17:34:28;15.00;99.90
56103;DHT22;41970;48.774;9.280;2022-09-19T17:36:54;15.00;99.90
56103;DHT22;41970;48.774;9.280;2022-09-19T17:39:20;14.90;99.90
56103;DHT22;41970;48.774;9.280;2022-09-19T17:41:46;14.80;99.90
56103;DHT22;41970;48.774;9.280;2022-09-19T17:44:12;14.80;99.90
56103;DHT22;41970;48.774;9.280;2022-09-19T17:46:41;14.90;99.90
56103;DHT22;41970;48.774;9.280;2022-09-19T17:49:08;14.90;99.90
56103;DHT22;41970;48.774;9.280;2022-09-19T17:51:34;14.90;99.90
56103;DHT22;41970;48.774;9.280;2022-09-19T17:54:01;14.90;99.90
56103;DHT22;41970;48.774;9.280;2022-09-19T17:56:27;14.80;99.90
56103;DHT22;41970;48.774;9.280;2022-09-19T17:58:58;14.90;99.90
56103;DHT22;41970;48.774;9.280;2022-09-19T18:01:26;14.90;99.90
56103;DHT22;41970;48.774;9.280;2022-09-19T18:04:12;14.80;99.90
56103;DHT22;41970;48.774;9.280;2022-09-19T18:06:38;14.50;99.90
56103;DHT22;41970;48.774;9.280;2022-09-19T18:09:07;14.20;99.90
56103;DHT22;41970;48.774;9.280;2022-09-19T18:11:34;14.00;99.90
56103;DHT22;41970;48.774;9.280;2022-09-19T18:14:02;13.90;99.90
56103;DHT22;41970;48.774;9.280;2022-09-19T18:16:30;13.80;99.90
56103;DHT22;41970;48.774;9.280;2022-09-19T18:18:56;13.80;99.90
56103;DHT22;41970;48.774;9.280;2022-09-19T18:21:22;13.70;99.90
56103;DHT22;41970;48.774;9.280;2022-09-19T18:23:48;13.80;99.90
56103;DHT22;41970;48.774;9.280;2022-09-19T18:26:19;13.50;99.90
56103;DHT22;41970;48.774;9.280;2022-09-19T18:28:51;13.50;99.90
56103;DHT22;41970;48.774;9.280;2022-09-19T18:31:18;13.60;99.90
56103;DHT22;41970;48.774;9.280;2022-09-19T18:33:44;13.80;99.90
56103;DHT22;41970;48.774;9.280;2022-09-19T18:36:15;13.90;99.90
56103;DHT22;41970;48.774;9.280;2022-09-19T18:38:42;14.00;99.90
56103;DHT22;41970;48.774;9.280;2022-09-19T18:41:09;14.00;99.90
56103;DHT22;41970;48.774;9.280;2022-09-19T18:43:35;14.10;99.90
56103;DHT22;41970;48.774;9.280;2022-09-19T18:46:02;14.20;99.90
56103;DHT22;41970;48.774;9.280;2022-09-19T18:48:28;14.20;99.90
56103;DHT22;41970;48.774;9.280;2022-09-19T18:50:54;14.20;99.90
56103;DHT22;41970;48.774;9.280;2022-09-19T18:53:20;14.20;99.90
56103;DHT22;41970;48.774;9.280;2022-09-19T18:55:53;14.30;99.90